sensor_id;sensor_type;location;lat;lon;timestamp;temperature;humidity
23122;DHT22;11730;51.248;22.534;2023-12-14T00:01:57;2.10;1.00
23122;DHT22;11730;51.248;22.534;2023-12-14T00:04:24;2.10;1.00
23122;DHT22;11730;51.248;22.534;2023-12-14T00:06:52;2.20;1.00
23122;DHT22;11730;51.248;22.534;2023-12-14T00:09:18;2.10;1.00
23122;DHT22;11730;51.248;22.534;2023-12-14T00:11:45;2.20;1.00
23122;DHT22;11730;51.248;22.534;2023-12-14T00:14:12;2.30;1.00
23122;DHT22;11730;51.248;22.534;2023-12-14T00:16:39;2.30;1.00
23122;DHT22;11730;51.248;22.534;2023-12-14T00:19:06;2.10;1.00
23122;DHT22;11730;51.248;22.534;2023-12-14T00:21:33;2.20;1.00
23122;DHT22;11730;51.248;22.534;2023-12-14T00:24:00;2.10;1.00
23122;DHT22;11730;51.248;22.534;2023-12-14T00:26:27;2.00;1.00
23122;DHT22;11730;51.248;22.534;2023-12-14T00:28:54;2.00;1.00
23122;DHT22;11730;51.248;22.534;2023-12-14T00:31:27;2.00;1.00
23122;DHT22;11730;51.248;22.534;2023-12-14T00:33:55;2.00;1.00
23122;DHT22;11730;51.248;22.534;2023-12-14T00:36:22;1.90;1.00
23122;DHT22;11730;51.248;22.534;2023-12-14T00:38:49;2.00;1.00
23122;DHT22;11730;51.248;22.534;2023-12-14T00:41:16;2.00;1.00
23122;DHT22;11730;51.248;22.534;2023-12-14T00:43:43;2.00;1.00
23122;DHT22;11730;51.248;22.534;2023-12-14T00:46:10;2.00;1.00
23122;DHT22;11730;51.248;22.534;2023-12-14T00:48:38;2.10;1.00
23122;DHT22;11730;51.248;22.534;2023-12-14T00:51:05;2.10;1.00
23122;DHT22;11730;51.248;22.534;2023-12-14T00:53:32;2.00;1.00
23122;DHT22;11730;51.248;22.534;2023-12-14T00:55:59;2.20;1.00
23122;DHT22;11730;51.248;22.534;2023-12-14T00:58:26;2.20;1.00
23122;DHT22;11730;51.248;22.534;2023-12-14T01:00:53;2.00;1.00
23122;DHT22;11730;51.248;22.534;2023-12-14T01:03:21;2.10;1.00
23122;DHT22;11730;51.248;22.534;2023-12-14T01:05:48;2.00;1.00
23122;DHT22;11730;51.248;22.534;2023-12-14T01:08:15;2.10;1.00
23122;DHT22;11730;51.248;22.534;2023-12-14T01:10:43;2.10;1.00
23122;DHT22;11730;51.248;22.534;2023-12-14T01:13:10;2.10;1.00
23122;DHT22;11730;51.248;22.534;2023-12-14T01:15:37;2.00;1.00
23122;DHT22;11730;51.248;22.534;2023-12-14T01:18:03;2.10;1.00
23122;DHT22;11730;51.248;22.534;2023-12-14T01:20:30;2.20;1.00
23122;DHT22;11730;51.248;22.534;2023-12-14T01:22:57;2.20;1.00
23122;DHT22;11730;51.248;22.534;2023-12-14T01:25:25;2.10;1.00
23122;DHT22;11730;51.248;22.534;2023-12-14T01:27:52;2.10;1.00
23122;DHT22;11730;51.248;22.534;2023-12-14T01:30:19;2.10;1.00
23122;DHT22;11730;51.248;22.534;2023-12-14T01:32:46;2.10;1.00
23122;DHT22;11730;51.248;22.534;2023-12-14T01:35:13;2.00;1.00
23122;DHT22;11730;51.248;22.534;2023-12-14T01:37:40;2.10;1.00
23122;DHT22;11730;51.248;22.534;2023-12-14T01:40:07;2.10;1.00
23122;DHT22;11730;51.248;22.534;2023-12-14T01:42:35;2.00;1.00
23122;DHT22;11730;51.248;22.534;2023-12-14T01:45:02;1.90;1.00
23122;DHT22;11730;51.248;22.534;2023-12-14T01:47:30;2.00;1.00
23122;DHT22;11730;51.248;22.534;2023-12-14T01:49:57;2.00;1.00
23122;DHT22;11730;51.248;22.534;2023-12-14T01:52:24;2.00;1.00
23122;DHT22;11730;51.248;22.534;2023-12-14T01:54:51;2.00;1.00
23122;DHT22;11730;51.248;22.534;2023-12-14T01:57:18;2.10;1.00
23122;DHT22;11730;51.248;22.534;2023-12-14T01:59:45;2.10;1.00
23122;DHT22;11730;51.248;22.534;2023-12-14T02:02:12;2.00;1.00
23122;DHT22;11730;51.248;22.534;2023-12-14T02:04:39;2.10;1.00
23122;DHT22;11730;51.248;22.534;2023-12-14T02:07:06;2.00;1.00
23122;DHT22;11730;51.248;22.534;2023-12-14T02:09:33;2.20;1.00
23122;DHT22;11730;51.248;22.534;2023-12-14T02:11:59;2.00;1.00
23122;DHT22;11730;51.248;22.534;2023-12-14T02:14:26;2.20;1.00
23122;DHT22;11730;51.248;22.534;2023-12-14T02:16:53;2.00;1.00
23122;DHT22;11730;51.248;22.534;2023-12-14T02:19:20;2.00;1.00
23122;DHT22;11730;51.248;22.534;2023-12-14T02:21:47;2.00;1.00
23122;DHT22;11730;51.248;22.534;2023-12-14T02:24:14;2.10;1.00
23122;DHT22;11730;51.248;22.534;2023-12-14T02:26:41;2.10;1.00
23122;DHT22;11730;51.248;22.534;2023-12-14T02:29:27;2.10;1.00
23122;DHT22;11730;51.248;22.534;2023-12-14T02:31:54;2.00;1.00
23122;DHT22;11730;51.248;22.534;2023-12-14T02:34:22;1.90;1.00
23122;DHT22;11730;51.248;22.534;2023-12-14T02:36:52;2.10;1.00
23122;DHT22;11730;51.248;22.534;2023-12-14T02:39:18;2.20;1.00
23122;DHT22;11730;51.248;22.534;2023-12-14T02:41:46;2.20;1.00
23122;DHT22;11730;51.248;22.534;2023-12-14T02:44:12;2.20;1.00
23122;DHT22;11730;51.248;22.534;2023-12-14T02:46:39;2.20;1.00
23122;DHT22;11730;51.248;22.534;2023-12-14T02:49:06;2.20;1.00
23122;DHT22;11730;51.248;22.534;2023-12-14T02:51:33;2.10;1.00
23122;DHT22;11730;51.248;22.534;2023-12-14T02:54:00;2.20;1.00
23122;DHT22;11730;51.248;22.534;2023-12-14T02:56:27;2.20;1.00
23122;DHT22;11730;51.248;22.534;2023-12-14T02:58:54;2.00;1.00
23122;DHT22;11730;51.248;22.534;2023-12-14T03:01:21;2.10;1.00
23122;DHT22;11730;51.248;22.534;2023-12-14T03:03:49;2.20;1.00
23122;DHT22;11730;51.248;22.534;2023-12-14T03:06:16;2.20;1.00
23122;DHT22;11730;51.248;22.534;2023-12-14T03:08:43;2.30;1.00
23122;DHT22;11730;51.248;22.534;2023-12-14T03:11:20;2.30;1.00
23122;DHT22;11730;51.248;22.534;2023-12-14T03:13:47;2.00;1.00
23122;DHT22;11730;51.248;22.534;2023-12-14T03:16:14;2.10;1.00
23122;DHT22;11730;51.248;22.534;2023-12-14T03:18:43;2.10;1.00
23122;DHT22;11730;51.248;22.534;2023-12-14T03:21:10;2.00;1.00
23122;DHT22;11730;51.248;22.534;2023-12-14T03:23:37;2.10;1.00
23122;DHT22;11730;51.248;22.534;2023-12-14T03:26:04;2.20;1.00
23122;DHT22;11730;51.248;22.534;2023-12-14T03:28:31;2.10;1.00
23122;DHT22;11730;51.248;22.534;2023-12-14T03:30:58;2.10;1.00
23122;DHT22;11730;51.248;22.534;2023-12-14T03:33:25;2.10;1.00
23122;DHT22;11730;51.248;22.534;2023-12-14T03:35:52;2.10;1.00
23122;DHT22;11730;51.248;22.534;2023-12-14T03:38:19;2.00;1.00
23122;DHT22;11730;51.248;22.534;2023-12-14T03:40:46;2.00;1.00
23122;DHT22;11730;51.248;22.534;2023-12-14T03:43:13;2.10;1.00
23122;DHT22;11730;51.248;22.534;2023-12-14T03:45:40;2.10;1.00
23122;DHT22;11730;51.248;22.534;2023-12-14T03:48:07;2.10;1.00
23122;DHT22;11730;51.248;22.534;2023-12-14T03:50:34;2.10;1.00
23122;DHT22;11730;51.248;22.534;2023-12-14T03:53:01;2.00;1.00
23122;DHT22;11730;51.248;22.534;2023-12-14T03:55:28;1.60;1.00
23122;DHT22;11730;51.248;22.534;2023-12-14T03:57:55;2.10;1.00
23122;DHT22;11730;51.248;22.534;2023-12-14T04:00:22;2.10;1.00
23122;DHT22;11730;51.248;22.534;2023-12-14T04:02:49;2.10;1.00
23122;DHT22;11730;51.248;22.534;2023-12-14T04:05:16;3.80;1.00
23122;DHT22;11730;51.248;22.534;2023-12-14T04:07:43;2.10;1.00
23122;DHT22;11730;51.248;22.534;2023-12-14T04:10:12;2.00;1.00
23122;DHT22;11730;51.248;22.534;2023-12-14T04:12:39;2.10;1.00
23122;DHT22;11730;51.248;22.534;2023-12-14T04:15:07;2.10;1.00
23122;DHT22;11730;51.248;22.534;2023-12-14T04:17:35;2.20;1.00
23122;DHT22;11730;51.248;22.534;2023-12-14T04:20:03;2.20;1.00
23122;DHT22;11730;51.248;22.534;2023-12-14T04:22:33;2.30;1.00
23122;DHT22;11730;51.248;22.534;2023-12-14T04:25:00;2.20;1.00
23122;DHT22;11730;51.248;22.534;2023-12-14T04:27:27;2.30;1.00
23122;DHT22;11730;51.248;22.534;2023-12-14T04:29:56;2.30;1.00
23122;DHT22;11730;51.248;22.534;2023-12-14T04:32:23;2.10;1.00
23122;DHT22;11730;51.248;22.534;2023-12-14T04:34:50;2.20;1.00
23122;DHT22;11730;51.248;22.534;2023-12-14T04:37:17;2.20;1.00
23122;DHT22;11730;51.248;22.534;2023-12-14T04:39:44;2.30;1.00
23122;DHT22;11730;51.248;22.534;2023-12-14T04:42:10;2.30;1.00
23122;DHT22;11730;51.248;22.534;2023-12-14T04:44:37;2.20;1.00
23122;DHT22;11730;51.248;22.534;2023-12-14T04:47:04;2.10;1.00
23122;DHT22;11730;51.248;22.534;2023-12-14T04:49:31;2.10;1.00
23122;DHT22;11730;51.248;22.534;2023-12-14T04:51:58;2.10;1.00
23122;DHT22;11730;51.248;22.534;2023-12-14T04:54:25;2.10;1.00
23122;DHT22;11730;51.248;22.534;2023-12-14T04:56:52;2.10;1.00
23122;DHT22;11730;51.248;22.534;2023-12-14T04:59:19;2.10;1.00
23122;DHT22;11730;51.248;22.534;2023-12-14T05:01:46;2.10;1.00
23122;DHT22;11730;51.248;22.534;2023-12-14T05:04:13;2.10;1.00
23122;DHT22;11730;51.248;22.534;2023-12-14T05:06:40;2.00;1.00
23122;DHT22;11730;51.248;22.534;2023-12-14T05:09:07;2.00;1.00
23122;DHT22;11730;51.248;22.534;2023-12-14T05:11:35;1.90;1.00
23122;DHT22;11730;51.248;22.534;2023-12-14T05:14:02;1.90;1.00
23122;DHT22;11730;51.248;22.534;2023-12-14T05:16:29;2.00;1.00
23122;DHT22;11730;51.248;22.534;2023-12-14T05:18:57;2.00;1.00
23122;DHT22;11730;51.248;22.534;2023-12-14T05:21:24;2.00;1.00
23122;DHT22;11730;51.248;22.534;2023-12-14T05:23:51;2.00;1.00
23122;DHT22;11730;51.248;22.534;2023-12-14T05:26:19;2.10;1.00
23122;DHT22;11730;51.248;22.534;2023-12-14T05:28:46;2.10;1.00
23122;DHT22;11730;51.248;22.534;2023-12-14T05:31:12;2.10;1.00
23122;DHT22;11730;51.248;22.534;2023-12-14T05:33:39;2.00;1.00
23122;DHT22;11730;51.248;22.534;2023-12-14T05:36:07;2.00;1.00
23122;DHT22;11730;51.248;22.534;2023-12-14T05:38:41;1.90;1.00
23122;DHT22;11730;51.248;22.534;2023-12-14T05:41:08;1.90;1.00
23122;DHT22;11730;51.248;22.534;2023-12-14T05:43:37;2.00;1.00
23122;DHT22;11730;51.248;22.534;2023-12-14T05:46:04;2.00;1.00
23122;DHT22;11730;51.248;22.534;2023-12-14T05:48:31;1.90;1.00
23122;DHT22;11730;51.248;22.534;2023-12-14T05:51:00;1.90;1.00
23122;DHT22;11730;51.248;22.534;2023-12-14T05:53:27;1.90;1.00
23122;DHT22;11730;51.248;22.534;2023-12-14T05:55:54;1.90;1.00
23122;DHT22;11730;51.248;22.534;2023-12-14T05:58:21;2.00;1.00
23122;DHT22;11730;51.248;22.534;2023-12-14T06:00:48;2.00;1.00
23122;DHT22;11730;51.248;22.534;2023-12-14T06:03:15;2.10;1.00
23122;DHT22;11730;51.248;22.534;2023-12-14T06:05:42;1.90;1.00
23122;DHT22;11730;51.248;22.534;2023-12-14T06:08:09;2.00;1.00
23122;DHT22;11730;51.248;22.534;2023-12-14T06:10:36;2.00;1.00
23122;DHT22;11730;51.248;22.534;2023-12-14T06:13:03;2.10;1.00
23122;DHT22;11730;51.248;22.534;2023-12-14T06:15:31;2.00;1.00
23122;DHT22;11730;51.248;22.534;2023-12-14T06:17:59;2.00;1.00
23122;DHT22;11730;51.248;22.534;2023-12-14T06:20:26;2.00;1.00
23122;DHT22;11730;51.248;22.534;2023-12-14T06:22:53;2.00;1.00
23122;DHT22;11730;51.248;22.534;2023-12-14T06:25:21;2.00;1.00
23122;DHT22;11730;51.248;22.534;2023-12-14T06:27:48;2.00;1.00
23122;DHT22;11730;51.248;22.534;2023-12-14T06:30:16;2.00;1.00
23122;DHT22;11730;51.248;22.534;2023-12-14T06:32:43;1.90;1.00
23122;DHT22;11730;51.248;22.534;2023-12-14T06:35:10;2.00;1.00
23122;DHT22;11730;51.248;22.534;2023-12-14T06:37:37;2.00;1.00
23122;DHT22;11730;51.248;22.534;2023-12-14T06:40:04;2.00;1.00
23122;DHT22;11730;51.248;22.534;2023-12-14T06:42:32;2.00;1.00
23122;DHT22;11730;51.248;22.534;2023-12-14T06:45:01;2.00;1.00
23122;DHT22;11730;51.248;22.534;2023-12-14T06:47:29;2.00;1.00
23122;DHT22;11730;51.248;22.534;2023-12-14T06:49:56;2.00;1.00
23122;DHT22;11730;51.248;22.534;2023-12-14T06:52:26;2.00;1.00
23122;DHT22;11730;51.248;22.534;2023-12-14T06:54:53;2.00;1.00
23122;DHT22;11730;51.248;22.534;2023-12-14T06:57:20;2.10;1.00
23122;DHT22;11730;51.248;22.534;2023-12-14T06:59:50;2.20;1.00
23122;DHT22;11730;51.248;22.534;2023-12-14T07:02:17;2.10;1.00
23122;DHT22;11730;51.248;22.534;2023-12-14T07:04:44;2.30;1.00
23122;DHT22;11730;51.248;22.534;2023-12-14T07:07:11;2.10;1.00
23122;DHT22;11730;51.248;22.534;2023-12-14T07:09:39;2.10;1.00
23122;DHT22;11730;51.248;22.534;2023-12-14T07:12:06;2.10;1.00
23122;DHT22;11730;51.248;22.534;2023-12-14T07:14:34;2.10;1.00
23122;DHT22;11730;51.248;22.534;2023-12-14T07:17:01;2.10;1.00
23122;DHT22;11730;51.248;22.534;2023-12-14T07:19:29;2.20;1.00
23122;DHT22;11730;51.248;22.534;2023-12-14T07:21:56;2.20;1.00
23122;DHT22;11730;51.248;22.534;2023-12-14T07:24:23;2.20;1.00
23122;DHT22;11730;51.248;22.534;2023-12-14T07:26:50;2.20;1.00
23122;DHT22;11730;51.248;22.534;2023-12-14T07:29:17;2.30;1.00
23122;DHT22;11730;51.248;22.534;2023-12-14T07:31:44;2.40;1.00
23122;DHT22;11730;51.248;22.534;2023-12-14T07:34:11;2.40;1.00
23122;DHT22;11730;51.248;22.534;2023-12-14T07:36:38;2.30;1.00
23122;DHT22;11730;51.248;22.534;2023-12-14T07:39:05;2.20;1.00
23122;DHT22;11730;51.248;22.534;2023-12-14T07:41:32;2.30;1.00
23122;DHT22;11730;51.248;22.534;2023-12-14T07:43:59;2.20;1.00
23122;DHT22;11730;51.248;22.534;2023-12-14T07:46:30;2.20;1.00
23122;DHT22;11730;51.248;22.534;2023-12-14T07:48:58;2.30;1.00
23122;DHT22;11730;51.248;22.534;2023-12-14T07:51:25;2.10;1.00
23122;DHT22;11730;51.248;22.534;2023-12-14T07:53:51;2.20;1.00
23122;DHT22;11730;51.248;22.534;2023-12-14T07:56:18;2.20;1.00
23122;DHT22;11730;51.248;22.534;2023-12-14T07:58:45;2.20;1.00
23122;DHT22;11730;51.248;22.534;2023-12-14T08:01:12;2.30;1.00
23122;DHT22;11730;51.248;22.534;2023-12-14T08:03:41;2.30;1.00
23122;DHT22;11730;51.248;22.534;2023-12-14T08:06:08;2.30;1.00
23122;DHT22;11730;51.248;22.534;2023-12-14T08:08:35;2.40;1.00
23122;DHT22;11730;51.248;22.534;2023-12-14T08:11:04;2.50;1.00
23122;DHT22;11730;51.248;22.534;2023-12-14T08:13:32;2.50;1.00
23122;DHT22;11730;51.248;22.534;2023-12-14T08:15:58;2.50;1.00
23122;DHT22;11730;51.248;22.534;2023-12-14T08:18:25;2.50;1.00
23122;DHT22;11730;51.248;22.534;2023-12-14T08:20:52;2.60;1.00
23122;DHT22;11730;51.248;22.534;2023-12-14T08:23:22;2.50;1.00
23122;DHT22;11730;51.248;22.534;2023-12-14T08:25:50;2.60;1.00
23122;DHT22;11730;51.248;22.534;2023-12-14T08:28:17;2.60;1.00
23122;DHT22;11730;51.248;22.534;2023-12-14T08:30:45;2.60;1.00
23122;DHT22;11730;51.248;22.534;2023-12-14T08:33:12;2.60;1.00
23122;DHT22;11730;51.248;22.534;2023-12-14T08:35:39;2.50;1.00
23122;DHT22;11730;51.248;22.534;2023-12-14T08:38:06;2.60;1.00
23122;DHT22;11730;51.248;22.534;2023-12-14T08:40:33;2.50;1.00
23122;DHT22;11730;51.248;22.534;2023-12-14T08:43:00;2.50;1.00
23122;DHT22;11730;51.248;22.534;2023-12-14T08:45:27;2.60;1.00
23122;DHT22;11730;51.248;22.534;2023-12-14T08:47:54;2.60;1.00
23122;DHT22;11730;51.248;22.534;2023-12-14T08:50:23;2.70;1.00
23122;DHT22;11730;51.248;22.534;2023-12-14T08:52:52;2.70;1.00
23122;DHT22;11730;51.248;22.534;2023-12-14T08:55:21;2.60;1.00
23122;DHT22;11730;51.248;22.534;2023-12-14T08:57:48;2.70;1.00
23122;DHT22;11730;51.248;22.534;2023-12-14T09:00:16;2.60;1.00
23122;DHT22;11730;51.248;22.534;2023-12-14T09:02:45;2.50;1.00
23122;DHT22;11730;51.248;22.534;2023-12-14T09:05:13;2.60;1.00
23122;DHT22;11730;51.248;22.534;2023-12-14T09:07:43;2.60;1.00
23122;DHT22;11730;51.248;22.534;2023-12-14T09:10:10;2.60;1.00
23122;DHT22;11730;51.248;22.534;2023-12-14T09:12:37;2.60;1.00
23122;DHT22;11730;51.248;22.534;2023-12-14T09:15:04;2.60;1.00
23122;DHT22;11730;51.248;22.534;2023-12-14T09:17:31;2.60;1.00
23122;DHT22;11730;51.248;22.534;2023-12-14T09:20:04;2.70;1.00
23122;DHT22;11730;51.248;22.534;2023-12-14T09:22:32;2.60;1.00
23122;DHT22;11730;51.248;22.534;2023-12-14T09:24:59;2.70;1.00
23122;DHT22;11730;51.248;22.534;2023-12-14T09:27:25;2.70;1.00
23122;DHT22;11730;51.248;22.534;2023-12-14T09:29:53;2.70;1.00
23122;DHT22;11730;51.248;22.534;2023-12-14T09:32:20;2.70;1.00
23122;DHT22;11730;51.248;22.534;2023-12-14T09:34:47;2.70;1.00
23122;DHT22;11730;51.248;22.534;2023-12-14T09:37:14;2.70;1.00
23122;DHT22;11730;51.248;22.534;2023-12-14T09:39:41;2.70;1.00
23122;DHT22;11730;51.248;22.534;2023-12-14T09:42:08;2.80;1.00
23122;DHT22;11730;51.248;22.534;2023-12-14T09:44:37;2.80;1.00
23122;DHT22;11730;51.248;22.534;2023-12-14T09:47:05;2.90;1.00
23122;DHT22;11730;51.248;22.534;2023-12-14T09:49:32;2.80;1.00
23122;DHT22;11730;51.248;22.534;2023-12-14T09:52:00;2.80;1.00
23122;DHT22;11730;51.248;22.534;2023-12-14T09:54:27;2.70;1.00
23122;DHT22;11730;51.248;22.534;2023-12-14T09:56:54;2.70;1.00
23122;DHT22;11730;51.248;22.534;2023-12-14T09:59:22;2.70;1.00
23122;DHT22;11730;51.248;22.534;2023-12-14T10:01:49;2.80;1.00
23122;DHT22;11730;51.248;22.534;2023-12-14T10:04:19;2.60;1.00
23122;DHT22;11730;51.248;22.534;2023-12-14T10:06:47;2.70;1.00
23122;DHT22;11730;51.248;22.534;2023-12-14T10:09:14;2.70;1.00
23122;DHT22;11730;51.248;22.534;2023-12-14T10:11:45;2.80;1.00
23122;DHT22;11730;51.248;22.534;2023-12-14T10:16:47;2.50;1.00
23122;DHT22;11730;51.248;22.534;2023-12-14T10:19:16;2.50;1.00
23122;DHT22;11730;51.248;22.534;2023-12-14T10:21:43;2.60;1.00
23122;DHT22;11730;51.248;22.534;2023-12-14T10:24:13;2.70;1.00
23122;DHT22;11730;51.248;22.534;2023-12-14T10:26:46;2.70;1.00
23122;DHT22;11730;51.248;22.534;2023-12-14T10:29:13;2.70;1.00
23122;DHT22;11730;51.248;22.534;2023-12-14T10:31:40;2.80;1.00
23122;DHT22;11730;51.248;22.534;2023-12-14T10:34:08;2.90;1.00
23122;DHT22;11730;51.248;22.534;2023-12-14T10:36:35;2.80;1.00
23122;DHT22;11730;51.248;22.534;2023-12-14T10:39:03;2.90;1.00
23122;DHT22;11730;51.248;22.534;2023-12-14T10:41:33;3.00;1.00
23122;DHT22;11730;51.248;22.534;2023-12-14T10:44:00;2.90;1.00
23122;DHT22;11730;51.248;22.534;2023-12-14T10:46:48;2.90;1.00
23122;DHT22;11730;51.248;22.534;2023-12-14T10:49:16;2.80;1.00
23122;DHT22;11730;51.248;22.534;2023-12-14T10:51:44;2.90;1.00
23122;DHT22;11730;51.248;22.534;2023-12-14T10:54:15;2.80;1.00
23122;DHT22;11730;51.248;22.534;2023-12-14T10:56:42;2.90;1.00
23122;DHT22;11730;51.248;22.534;2023-12-14T10:59:09;2.90;1.00
23122;DHT22;11730;51.248;22.534;2023-12-14T11:01:36;2.90;1.00
23122;DHT22;11730;51.248;22.534;2023-12-14T11:04:06;2.90;1.00
23122;DHT22;11730;51.248;22.534;2023-12-14T11:06:39;3.00;1.00
23122;DHT22;11730;51.248;22.534;2023-12-14T11:09:08;2.80;1.00
23122;DHT22;11730;51.248;22.534;2023-12-14T11:14:26;2.80;1.00
23122;DHT22;11730;51.248;22.534;2023-12-14T11:16:55;2.80;1.00
23122;DHT22;11730;51.248;22.534;2023-12-14T11:19:24;2.80;1.00
23122;DHT22;11730;51.248;22.534;2023-12-14T11:24:24;2.70;1.00
23122;DHT22;11730;51.248;22.534;2023-12-14T11:26:54;2.80;1.00
23122;DHT22;11730;51.248;22.534;2023-12-14T11:29:21;2.90;1.00
23122;DHT22;11730;51.248;22.534;2023-12-14T11:31:50;2.80;1.00
23122;DHT22;11730;51.248;22.534;2023-12-14T11:34:17;2.80;1.00
23122;DHT22;11730;51.248;22.534;2023-12-14T11:36:44;2.90;1.00
23122;DHT22;11730;51.248;22.534;2023-12-14T11:39:13;3.00;1.00
23122;DHT22;11730;51.248;22.534;2023-12-14T11:41:41;3.00;1.00
23122;DHT22;11730;51.248;22.534;2023-12-14T11:44:08;2.90;1.00
23122;DHT22;11730;51.248;22.534;2023-12-14T11:46:35;2.90;1.00
23122;DHT22;11730;51.248;22.534;2023-12-14T11:49:03;2.90;1.00
23122;DHT22;11730;51.248;22.534;2023-12-14T11:51:34;2.90;1.00
23122;DHT22;11730;51.248;22.534;2023-12-14T11:54:01;2.90;1.00
23122;DHT22;11730;51.248;22.534;2023-12-14T11:56:29;3.00;1.00
23122;DHT22;11730;51.248;22.534;2023-12-14T11:58:57;2.90;1.00
23122;DHT22;11730;51.248;22.534;2023-12-14T12:01:24;2.90;1.00
23122;DHT22;11730;51.248;22.534;2023-12-14T12:03:53;3.00;1.00
23122;DHT22;11730;51.248;22.534;2023-12-14T12:06:27;3.00;1.00
23122;DHT22;11730;51.248;22.534;2023-12-14T12:08:55;3.00;1.00
23122;DHT22;11730;51.248;22.534;2023-12-14T12:11:23;3.00;1.00
23122;DHT22;11730;51.248;22.534;2023-12-14T12:13:56;3.00;1.00
23122;DHT22;11730;51.248;22.534;2023-12-14T12:16:24;2.90;1.00
23122;DHT22;11730;51.248;22.534;2023-12-14T12:18:52;3.00;1.00
23122;DHT22;11730;51.248;22.534;2023-12-14T12:21:20;3.10;1.00
23122;DHT22;11730;51.248;22.534;2023-12-14T12:23:46;2.90;1.00
23122;DHT22;11730;51.248;22.534;2023-12-14T12:26:14;2.90;1.00
23122;DHT22;11730;51.248;22.534;2023-12-14T12:28:41;2.90;1.00
23122;DHT22;11730;51.248;22.534;2023-12-14T12:31:08;3.10;1.00
23122;DHT22;11730;51.248;22.534;2023-12-14T12:33:35;3.20;1.00
23122;DHT22;11730;51.248;22.534;2023-12-14T12:36:05;3.20;1.00
23122;DHT22;11730;51.248;22.534;2023-12-14T12:38:32;3.20;1.00
23122;DHT22;11730;51.248;22.534;2023-12-14T12:41:00;3.10;1.00
23122;DHT22;11730;51.248;22.534;2023-12-14T12:43:28;3.10;1.00
23122;DHT22;11730;51.248;22.534;2023-12-14T12:45:55;3.00;1.00
23122;DHT22;11730;51.248;22.534;2023-12-14T12:48:24;2.90;1.00
23122;DHT22;11730;51.248;22.534;2023-12-14T12:50:54;2.90;1.00
23122;DHT22;11730;51.248;22.534;2023-12-14T12:53:21;2.90;1.00
23122;DHT22;11730;51.248;22.534;2023-12-14T12:55:48;2.90;1.00
23122;DHT22;11730;51.248;22.534;2023-12-14T12:58:15;2.90;1.00
23122;DHT22;11730;51.248;22.534;2023-12-14T13:00:42;3.00;1.00
23122;DHT22;11730;51.248;22.534;2023-12-14T13:03:09;3.10;1.00
23122;DHT22;11730;51.248;22.534;2023-12-14T13:05:37;3.00;1.00
23122;DHT22;11730;51.248;22.534;2023-12-14T13:08:04;3.00;1.00
23122;DHT22;11730;51.248;22.534;2023-12-14T13:10:31;3.00;1.00
23122;DHT22;11730;51.248;22.534;2023-12-14T13:12:59;2.90;1.00
23122;DHT22;11730;51.248;22.534;2023-12-14T13:15:27;2.00;1.00
23122;DHT22;11730;51.248;22.534;2023-12-14T13:17:56;2.90;1.00
23122;DHT22;11730;51.248;22.534;2023-12-14T13:20:24;2.80;1.00
23122;DHT22;11730;51.248;22.534;2023-12-14T13:22:51;2.80;1.00
23122;DHT22;11730;51.248;22.534;2023-12-14T13:25:19;2.80;1.00
23122;DHT22;11730;51.248;22.534;2023-12-14T13:27:49;2.80;1.00
23122;DHT22;11730;51.248;22.534;2023-12-14T13:30:16;2.80;1.00
23122;DHT22;11730;51.248;22.534;2023-12-14T13:32:45;2.80;1.00
23122;DHT22;11730;51.248;22.534;2023-12-14T13:35:12;2.80;1.00
23122;DHT22;11730;51.248;22.534;2023-12-14T13:37:40;2.70;1.00
23122;DHT22;11730;51.248;22.534;2023-12-14T13:40:08;2.80;1.00
23122;DHT22;11730;51.248;22.534;2023-12-14T13:42:40;2.70;1.00
23122;DHT22;11730;51.248;22.534;2023-12-14T13:45:25;2.70;1.00
23122;DHT22;11730;51.248;22.534;2023-12-14T13:47:53;2.60;1.00
23122;DHT22;11730;51.248;22.534;2023-12-14T13:50:20;2.60;1.00
23122;DHT22;11730;51.248;22.534;2023-12-14T13:52:48;2.70;1.00
23122;DHT22;11730;51.248;22.534;2023-12-14T13:55:16;2.70;1.00
23122;DHT22;11730;51.248;22.534;2023-12-14T13:57:43;2.60;1.00
23122;DHT22;11730;51.248;22.534;2023-12-14T14:00:10;2.60;1.00
23122;DHT22;11730;51.248;22.534;2023-12-14T14:02:38;2.60;1.00
23122;DHT22;11730;51.248;22.534;2023-12-14T14:05:05;2.50;1.00
23122;DHT22;11730;51.248;22.534;2023-12-14T14:07:32;2.60;1.00
23122;DHT22;11730;51.248;22.534;2023-12-14T14:10:00;2.60;1.00
23122;DHT22;11730;51.248;22.534;2023-12-14T14:12:27;2.60;1.00
23122;DHT22;11730;51.248;22.534;2023-12-14T14:14:54;2.60;1.00
23122;DHT22;11730;51.248;22.534;2023-12-14T14:17:21;2.80;1.00
23122;DHT22;11730;51.248;22.534;2023-12-14T14:19:49;2.60;1.00
23122;DHT22;11730;51.248;22.534;2023-12-14T14:22:16;2.60;1.00
23122;DHT22;11730;51.248;22.534;2023-12-14T14:24:43;2.60;1.00
23122;DHT22;11730;51.248;22.534;2023-12-14T14:27:10;2.60;1.00
23122;DHT22;11730;51.248;22.534;2023-12-14T14:29:37;2.50;1.00
23122;DHT22;11730;51.248;22.534;2023-12-14T14:32:04;2.60;1.00
23122;DHT22;11730;51.248;22.534;2023-12-14T14:34:31;2.60;1.00
23122;DHT22;11730;51.248;22.534;2023-12-14T14:36:58;2.60;1.00
23122;DHT22;11730;51.248;22.534;2023-12-14T14:39:25;2.60;1.00
23122;DHT22;11730;51.248;22.534;2023-12-14T14:41:52;2.60;1.00
23122;DHT22;11730;51.248;22.534;2023-12-14T14:44:19;2.60;1.00
23122;DHT22;11730;51.248;22.534;2023-12-14T14:46:47;2.60;1.00
23122;DHT22;11730;51.248;22.534;2023-12-14T14:49:14;2.50;1.00
23122;DHT22;11730;51.248;22.534;2023-12-14T14:51:42;2.50;1.00
23122;DHT22;11730;51.248;22.534;2023-12-14T14:54:09;2.50;1.00
23122;DHT22;11730;51.248;22.534;2023-12-14T14:56:36;2.50;1.00
23122;DHT22;11730;51.248;22.534;2023-12-14T14:59:03;2.50;1.00
23122;DHT22;11730;51.248;22.534;2023-12-14T15:01:30;2.40;1.00
23122;DHT22;11730;51.248;22.534;2023-12-14T15:03:57;2.40;1.00
23122;DHT22;11730;51.248;22.534;2023-12-14T15:06:26;2.50;1.00
23122;DHT22;11730;51.248;22.534;2023-12-14T15:08:53;2.40;1.00
23122;DHT22;11730;51.248;22.534;2023-12-14T15:11:20;2.40;1.00
23122;DHT22;11730;51.248;22.534;2023-12-14T15:13:47;2.40;1.00
23122;DHT22;11730;51.248;22.534;2023-12-14T15:16:14;2.40;1.00
23122;DHT22;11730;51.248;22.534;2023-12-14T15:18:41;2.40;1.00
23122;DHT22;11730;51.248;22.534;2023-12-14T15:21:12;2.30;1.00
23122;DHT22;11730;51.248;22.534;2023-12-14T15:23:42;2.20;1.00
23122;DHT22;11730;51.248;22.534;2023-12-14T15:26:11;2.30;1.00
23122;DHT22;11730;51.248;22.534;2023-12-14T15:28:38;2.30;1.00
23122;DHT22;11730;51.248;22.534;2023-12-14T15:31:05;2.20;1.00
23122;DHT22;11730;51.248;22.534;2023-12-14T15:33:32;2.30;1.00
23122;DHT22;11730;51.248;22.534;2023-12-14T15:36:00;2.30;1.00
23122;DHT22;11730;51.248;22.534;2023-12-14T15:38:27;2.30;1.00
23122;DHT22;11730;51.248;22.534;2023-12-14T15:40:55;2.30;1.00
23122;DHT22;11730;51.248;22.534;2023-12-14T15:43:22;2.40;1.00
23122;DHT22;11730;51.248;22.534;2023-12-14T15:45:49;2.30;1.00
23122;DHT22;11730;51.248;22.534;2023-12-14T15:48:17;2.30;1.00
23122;DHT22;11730;51.248;22.534;2023-12-14T15:50:44;2.30;1.00
23122;DHT22;11730;51.248;22.534;2023-12-14T15:53:13;2.30;1.00
23122;DHT22;11730;51.248;22.534;2023-12-14T15:55:40;2.30;1.00